Track Фёдоров Тимофей

Time Latitude Longitude Accuracy (66% radius in meters) Altitude (meters) Speed (km/hour) Bearing (degrees) Battery (%) GPS flag
09:55:05 55.737907 37.299059 8 177.42866662096 0.24716846644878 6.457820892334 75 1 delete
09:54:52 55.737913 37.299027 8 176.96039158055 0.030761228874326 116.87474822998 75 1 delete
09:54:46 55.737908 37.299064 4 176.84089259745 0.044112861156464 116.87474822998 75 1 delete
09:54:40 55.737912 37.299112 4 176.39682296089 0.0055830422788858 116.87474822998 75 1 delete
09:54:29 55.737909 37.299164 6 176.2910721393 0.098739832639694 73.334922790527 75 1 delete
09:54:17 55.737922 37.299152 8 176.81132345045 0.018892023712397 73.334922790527 75 1 delete
09:54:07 55.737923 37.299077 6 177.59822212025 0.10348509252071 73.334922790527 75 1 delete
09:54:01 55.737906 37.299077 6 177.6167983325 0.1609453856945 73.334922790527 75 1 delete
09:53:53 55.737880 37.299099 8 177.72136540712 0.48012751340866 73.334922790527 75 1 delete
09:53:44 55.737871 37.299110 4 177.58832379427 0.026520006358624 335.61926269531 79 1 delete
09:53:32 55.737864 37.299115 6 178.11583894267 0.02451984025538 338.44116210938 79 1 delete
09:53:19 55.737904 37.299073 8 178.73267774672 0.1564327031374 338.44116210938 79 1 delete
09:53:08 55.737903 37.299094 6 178.18220752214 0.029734959825873 234.55868530273 79 1 delete
09:52:56 55.737891 37.299097 6 177.08878900471 0.098298750817776 234.55868530273 79 1 delete
09:52:43 55.737916 37.299092 8 176.47184197898 0.084594324231148 234.55868530273 79 1 delete
09:52:32 55.737921 37.299123 6 176.56055025206 0.043799880892038 234.55868530273 79 1 delete
09:52:20 55.737898 37.299130 6 175.85061653089 0.14757852256298 234.55868530273 79 1 delete
09:52:08 55.737869 37.299079 6 175.38760196138 0.024210527539253 234.55868530273 79 1 delete
09:51:56 55.737895 37.299127 8 175.00017296759 0.047334790229797 234.55868530273 79 1 delete
09:51:44 55.737909 37.299124 6 174.86300979831 0.054691564291716 234.55868530273 79 1 delete
09:51:31 55.737869 37.299079 8 174.83100985075 0.16178177297115 234.55868530273 79 1 delete
09:51:23 55.737885 37.299074 8 175.00695079088 0.08706346154213 10.215711593628 79 1 delete
09:51:11 55.737922 37.299107 8 174.92063839512 0.03831572085619 10.215711593628 79 1 delete
09:50:59 55.737917 37.299093 6 174.52725971505 0.088831946253777 10.215711593628 79 1 delete
09:50:50 55.737921 37.299085 8 174.24400970337 0.066870003938675 10.215711593628 79 1 delete
09:50:38 55.737901 37.299068 8 173.55157264601 0.056798405945301 10.215711593628 79 1 delete
09:50:26 55.737886 37.299074 4 173.25037924248 0.006095755379647 10.215711593628 79 1 delete
09:50:14 55.737877 37.299090 6 172.59843680784 0.025631189346313 10.215711593628 79 1 delete
09:50:01 55.737866 37.299086 6 173.16380423344 0.14395527541637 10.215711593628 79 1 delete
09:49:53 55.737859 37.299114 4 173.50100339001 0.0084908390417695 10.215711593628 79 1 delete
09:49:49 55.737870 37.299113 6 173.56349828745 0.055376518517733 10.215711593628 79 1 delete
09:49:38 55.737902 37.299042 4 173.44759822028 0.20138020813465 10.215711593628 79 1 delete
09:49:29 55.737906 37.299063 8 173.03650517768 0.037786908447742 122.29684448242 79 1 delete
09:49:16 55.737897 37.299100 6 172.64294613364 0.031231120228767 122.29684448242 79 1 delete
09:49:04 55.737905 37.299100 4 172.59640506309 0.1155619546771 122.29684448242 79 1 delete
09:48:58 55.737907 37.299111 6 172.41985356054 0.013349967077374 122.29684448242 79 1 delete
09:48:52 55.737886 37.299115 4 172.28106275626 0.023913370445371 122.29684448242 79 1 delete
09:48:40 55.737872 37.299102 6 172.25142068985 0.015014770440757 122.29684448242 79 1 delete
09:48:29 55.737875 37.299066 6 172.40196228518 0.10457482933998 122.29684448242 79 1 delete
09:48:16 55.737861 37.299057 4 172.46011250979 0.030738394707441 122.29684448242 79 1 delete
09:48:13 55.737859 37.299069 4 172.45914795145 0.067325063049793 122.29684448242 79 1 delete
09:48:05 55.737890 37.299094 6 172.6819760845 0.29183828830719 122.29684448242 79 1 delete
09:47:53 55.737903 37.299079 6 172.97005046868 0.024925442412496 1.1562099456787 79 1 delete
09:47:50 55.737906 37.299078 6 172.94830706346 0.048551067709923 1.1562099456787 79 1 delete
09:47:41 55.737900 37.299067 6 173.09985160294 0.11438461393118 1.1562099456787 79 1 delete
09:47:32 55.737882 37.299087 8 173.13641250388 0.11535566300154 351.97979736328 79 1 delete
09:47:16 55.737861 37.299084 4 173.32376225025 0.043666832149029 351.97979736328 79 1 delete
09:47:14 55.737862 37.299095 4 173.30736671432 0.056864865124226 351.97979736328 79 1 delete
09:47:04 55.737889 37.299117 8 173.29942724964 0.026975840330124 351.97979736328 79 1 delete
09:46:53 55.737895 37.299135 4 174.02285113877 0.011319238692522 177.24140930176 79 1 delete